Time;durP1;ratioP1;P1;durP2;ratioP2;P2;SDS_P1;SDS_P2;PMS_P1;PMS_P2;Temp;Humidity;BMP_temperature;BMP_pressure;BME280_temperature;BME280_humidity;BME280_pressure;Samples;Min_cycle;Max_cycle;Signal;HPM_P1;HPM_P2
2023/12/06 00:01:02;;;;;;;;;;;0.80;99.90;;;;;;5114362;28;20282;-83
2023/12/06 00:03:27;;;;;;;;;;;0.80;99.90;;;;;;5104236;27;19972;-82
2023/12/06 00:05:53;;;;;;;;;;;0.80;99.90;;;;;;5109665;28;19924;-84
2023/12/06 00:08:18;;;;;;;;;;;0.80;99.90;;;;;;5101650;27;20375;-82
2023/12/06 00:10:44;;;;;;;;;;;0.80;99.90;;;;;;5114169;28;19985;-83
2023/12/06 00:13:10;;;;;;;;;;;0.90;99.90;;;;;;5109883;28;20018;-83
2023/12/06 00:15:35;;;;;;;;;;;0.80;99.90;;;;;;5115252;28;19930;-84
2023/12/06 00:18:01;;;;;;;;;;;0.90;99.90;;;;;;5115339;27;19924;-83
2023/12/06 00:20:26;;;;;;;;;;;0.80;99.90;;;;;;5115574;28;20332;-83
2023/12/06 00:22:52;;;;;;;;;;;0.80;99.90;;;;;;5108329;28;19931;-83
2023/12/06 00:25:17;;;;;;;;;;;0.80;99.90;;;;;;5115583;27;19975;-84
2023/12/06 00:27:43;;;;;;;;;;;0.80;99.90;;;;;;5115105;28;20015;-83
2023/12/06 00:30:09;;;;;;;;;;;0.80;99.90;;;;;;5113324;28;19934;-83
2023/12/06 00:32:34;;;;;;;;;;;0.80;99.90;;;;;;5118085;27;20285;-85
2023/12/06 00:35:00;;;;;;;;;;;0.80;99.90;;;;;;5107378;27;20289;-83
2023/12/06 00:37:26;;;;;;;;;;;0.90;99.90;;;;;;5110413;28;19924;-83
2023/12/06 00:39:51;;;;;;;;;;;0.80;99.90;;;;;;5118298;28;20370;-83
2023/12/06 00:42:17;;;;;;;;;;;0.90;99.90;;;;;;5115126;28;20015;-83
2023/12/06 00:44:42;;;;;;;;;;;0.90;99.90;;;;;;5110121;28;19931;-84
2023/12/06 00:47:08;;;;;;;;;;;0.90;99.90;;;;;;5118557;27;19924;-85
2023/12/06 00:49:33;;;;;;;;;;;0.90;99.90;;;;;;5114537;28;20393;-84
2023/12/06 00:51:59;;;;;;;;;;;0.90;99.90;;;;;;5115191;28;19928;-84
2023/12/06 00:54:24;;;;;;;;;;;0.90;99.90;;;;;;5123720;27;19924;-83
2023/12/06 00:56:50;;;;;;;;;;;0.90;99.90;;;;;;5114413;28;19924;-83
2023/12/06 00:59:15;;;;;;;;;;;0.90;99.90;;;;;;5119205;27;20014;-83
2023/12/06 01:01:41;;;;;;;;;;;0.90;99.90;;;;;;5104287;28;19924;-82
2023/12/06 01:04:07;;;;;;;;;;;0.90;99.90;;;;;;5113670;27;19924;-83
2023/12/06 01:06:32;;;;;;;;;;;0.90;99.90;;;;;;5121593;27;20427;-83
2023/12/06 01:08:58;;;;;;;;;;;0.90;99.90;;;;;;5116393;27;19923;-84
2023/12/06 01:11:23;;;;;;;;;;;0.90;99.90;;;;;;5103154;28;19970;-83
2023/12/06 01:13:49;;;;;;;;;;;1.00;99.90;;;;;;5114077;28;19935;-83
2023/12/06 01:16:14;;;;;;;;;;;1.00;99.90;;;;;;5115798;27;20017;-83
2023/12/06 01:18:40;;;;;;;;;;;0.90;99.90;;;;;;5116255;27;19930;-83
2023/12/06 01:21:06;;;;;;;;;;;1.00;99.90;;;;;;5124190;27;20018;-83
2023/12/06 01:23:32;;;;;;;;;;;1.00;99.90;;;;;;5109994;27;20359;-83
2023/12/06 01:25:57;;;;;;;;;;;0.90;99.90;;;;;;5111612;27;19924;-83
2023/12/06 01:28:23;;;;;;;;;;;1.00;99.90;;;;;;5108126;28;19985;-83
2023/12/06 01:30:48;;;;;;;;;;;1.00;99.90;;;;;;5119073;27;19928;-83
2023/12/06 01:33:14;;;;;;;;;;;1.00;99.90;;;;;;5115470;27;19924;-83
2023/12/06 01:35:39;;;;;;;;;;;1.10;99.90;;;;;;5111456;27;20302;-85
2023/12/06 01:38:05;;;;;;;;;;;1.00;99.90;;;;;;5121009;27;19924;-83
2023/12/06 01:40:30;;;;;;;;;;;1.00;99.90;;;;;;5109910;28;20016;-83
2023/12/06 01:42:56;;;;;;;;;;;1.00;99.90;;;;;;5118477;27;20328;-83
2023/12/06 01:45:21;;;;;;;;;;;1.00;99.90;;;;;;5112804;27;19931;-83
2023/12/06 01:47:47;;;;;;;;;;;1.00;99.90;;;;;;5120641;27;19968;-83
2023/12/06 01:50:13;;;;;;;;;;;1.00;99.90;;;;;;5115236;27;20429;-83
2023/12/06 01:52:39;;;;;;;;;;;1.00;99.90;;;;;;5106954;28;20399;-83
2023/12/06 01:55:05;;;;;;;;;;;1.00;99.90;;;;;;5108320;28;19932;-83
2023/12/06 01:57:31;;;;;;;;;;;1.00;99.90;;;;;;5113663;28;19927;-83
2023/12/06 01:59:57;;;;;;;;;;;1.00;99.90;;;;;;5107448;28;19924;-83
2023/12/06 02:02:24;;;;;;;;;;;1.00;99.90;;;;;;5109844;28;19924;-84
2023/12/06 02:04:50;;;;;;;;;;;1.00;99.90;;;;;;5113464;28;19938;-83
2023/12/06 02:07:16;;;;;;;;;;;1.00;99.90;;;;;;5127156;27;19924;-83
2023/12/06 02:09:41;;;;;;;;;;;1.10;99.90;;;;;;5112933;28;19924;-83
2023/12/06 02:12:07;;;;;;;;;;;1.00;99.90;;;;;;5096919;27;19949;-83
2023/12/06 02:14:35;;;;;;;;;;;1.00;99.90;;;;;;5114422;28;19969;-83
2023/12/06 02:17:02;;;;;;;;;;;1.00;99.90;;;;;;5106707;27;20007;-82
2023/12/06 02:19:28;;;;;;;;;;;1.00;99.90;;;;;;5112272;28;19923;-82
2023/12/06 02:21:54;;;;;;;;;;;1.00;99.90;;;;;;5109776;28;19993;-82
2023/12/06 02:24:20;;;;;;;;;;;1.00;99.90;;;;;;5110108;28;19928;-83
2023/12/06 02:26:46;;;;;;;;;;;1.00;99.90;;;;;;5101223;28;20003;-83
2023/12/06 02:29:11;;;;;;;;;;;1.00;99.90;;;;;;5105948;28;20278;-84
2023/12/06 02:31:37;;;;;;;;;;;1.00;99.90;;;;;;5099193;28;19935;-84
2023/12/06 02:34:06;;;;;;;;;;;1.10;99.90;;;;;;5111568;28;19924;-83
2023/12/06 02:36:32;;;;;;;;;;;1.00;99.90;;;;;;5112545;28;20346;-83
2023/12/06 02:38:57;;;;;;;;;;;1.00;99.90;;;;;;5109468;28;19931;-83
2023/12/06 02:41:23;;;;;;;;;;;1.00;99.90;;;;;;5124761;28;19924;-83
2023/12/06 02:43:49;;;;;;;;;;;1.00;99.90;;;;;;5114623;27;19947;-82
2023/12/06 02:46:15;;;;;;;;;;;1.10;99.90;;;;;;5117152;28;19924;-83
2023/12/06 02:48:40;;;;;;;;;;;1.00;99.90;;;;;;5119069;28;19927;-83
2023/12/06 02:51:06;;;;;;;;;;;1.00;99.90;;;;;;5112961;28;20070;-83
2023/12/06 02:53:32;;;;;;;;;;;1.00;99.90;;;;;;5116903;28;19924;-83
2023/12/06 02:55:57;;;;;;;;;;;1.00;99.90;;;;;;5117410;28;19924;-83
2023/12/06 02:58:23;;;;;;;;;;;1.10;99.90;;;;;;5103998;28;19923;-83
2023/12/06 03:00:48;;;;;;;;;;;1.00;99.90;;;;;;5111236;28;19928;-83
2023/12/06 03:03:14;;;;;;;;;;;1.00;99.90;;;;;;5098691;28;19928;-84
2023/12/06 03:05:39;;;;;;;;;;;1.00;99.90;;;;;;5108803;28;19931;-82
2023/12/06 03:08:05;;;;;;;;;;;1.00;99.90;;;;;;5123172;27;20840;-82
2023/12/06 03:10:31;;;;;;;;;;;1.10;99.90;;;;;;5114367;27;19930;-83
2023/12/06 03:12:56;;;;;;;;;;;1.00;99.90;;;;;;5119342;28;19934;-83
2023/12/06 03:15:22;;;;;;;;;;;1.00;99.90;;;;;;5094507;28;19924;-82
2023/12/06 03:17:47;;;;;;;;;;;1.00;99.90;;;;;;5118658;28;20367;-83
2023/12/06 03:20:13;;;;;;;;;;;1.10;99.90;;;;;;5112632;28;20381;-83
2023/12/06 03:22:39;;;;;;;;;;;1.00;99.90;;;;;;5120483;28;20064;-82
2023/12/06 03:25:07;;;;;;;;;;;1.00;99.90;;;;;;5093760;28;19924;-83
2023/12/06 03:27:33;;;;;;;;;;;1.00;99.90;;;;;;5108090;28;20449;-82
2023/12/06 03:29:59;;;;;;;;;;;1.10;99.90;;;;;;5099514;28;19924;-83
2023/12/06 03:32:24;;;;;;;;;;;1.00;99.90;;;;;;5103344;28;19924;-82
2023/12/06 03:34:50;;;;;;;;;;;1.10;99.90;;;;;;5111607;28;19924;-83
2023/12/06 03:37:16;;;;;;;;;;;1.10;99.90;;;;;;5108305;27;19984;-83
2023/12/06 03:39:41;;;;;;;;;;;1.10;99.90;;;;;;5116221;28;19936;-83
2023/12/06 03:42:07;;;;;;;;;;;1.00;99.90;;;;;;5116718;28;19927;-83
2023/12/06 03:44:32;;;;;;;;;;;1.10;99.90;;;;;;5115021;28;19973;-83
2023/12/06 03:46:58;;;;;;;;;;;1.10;99.90;;;;;;5101256;28;19924;-84
2023/12/06 03:49:23;;;;;;;;;;;1.00;99.90;;;;;;5116193;27;19938;-83
2023/12/06 03:51:49;;;;;;;;;;;1.10;99.90;;;;;;5113787;28;19981;-82
2023/12/06 03:54:14;;;;;;;;;;;1.10;99.90;;;;;;5138421;27;19924;-84
2023/12/06 03:56:41;;;;;;;;;;;1.10;99.90;;;;;;5114574;28;19935;-83
2023/12/06 03:59:06;;;;;;;;;;;1.10;99.90;;;;;;5116719;27;19923;-83
2023/12/06 04:01:32;;;;;;;;;;;1.10;99.90;;;;;;5112935;28;19946;-83
2023/12/06 04:03:57;;;;;;;;;;;1.10;99.90;;;;;;5121642;28;19979;-82
2023/12/06 04:06:23;;;;;;;;;;;1.10;99.90;;;;;;5126610;27;19931;-83
2023/12/06 04:08:48;;;;;;;;;;;1.10;99.90;;;;;;5135593;27;19935;-82
2023/12/06 04:11:14;;;;;;;;;;;1.20;99.90;;;;;;5118655;27;20027;-83
2023/12/06 04:13:39;;;;;;;;;;;1.20;99.90;;;;;;5107480;28;19938;-84
2023/12/06 04:16:06;;;;;;;;;;;1.20;99.90;;;;;;5117937;27;20286;-82
2023/12/06 04:18:32;;;;;;;;;;;1.20;99.90;;;;;;5119612;27;20381;-82
2023/12/06 04:20:57;;;;;;;;;;;1.20;99.90;;;;;;5112282;28;19923;-83
2023/12/06 04:23:23;;;;;;;;;;;1.30;99.90;;;;;;5112476;28;19947;-83
2023/12/06 04:25:48;;;;;;;;;;;1.20;99.90;;;;;;5110919;27;19930;-83
2023/12/06 04:28:14;;;;;;;;;;;1.30;99.90;;;;;;5136467;27;20389;-82
2023/12/06 04:30:39;;;;;;;;;;;1.30;99.90;;;;;;5114389;27;20282;-83
2023/12/06 04:33:05;;;;;;;;;;;1.30;99.90;;;;;;5117616;27;20349;-82
2023/12/06 04:35:31;;;;;;;;;;;1.30;99.90;;;;;;5106123;28;19927;-83
2023/12/06 04:37:56;;;;;;;;;;;1.30;99.90;;;;;;5099820;27;19924;-86
2023/12/06 04:40:22;;;;;;;;;;;1.20;99.90;;;;;;5131082;27;19923;-84
2023/12/06 04:42:47;;;;;;;;;;;1.30;99.90;;;;;;5108166;27;20263;-83
2023/12/06 04:45:13;;;;;;;;;;;1.30;99.90;;;;;;5099182;28;19935;-82
2023/12/06 04:47:38;;;;;;;;;;;1.20;99.90;;;;;;5112347;28;19949;-83
2023/12/06 04:50:04;;;;;;;;;;;1.20;99.90;;;;;;5113100;28;20367;-84
2023/12/06 04:52:30;;;;;;;;;;;1.30;99.90;;;;;;5142976;27;19932;-83
2023/12/06 04:54:56;;;;;;;;;;;1.30;99.90;;;;;;5118668;27;20108;-83
2023/12/06 04:57:22;;;;;;;;;;;1.40;99.90;;;;;;5114146;28;19934;-83
2023/12/06 04:59:47;;;;;;;;;;;1.40;99.90;;;;;;5114177;28;19923;-83
2023/12/06 05:02:13;;;;;;;;;;;1.40;99.90;;;;;;5113681;27;19928;-84
2023/12/06 05:04:38;;;;;;;;;;;1.40;99.90;;;;;;5117266;27;20362;-83
2023/12/06 05:07:04;;;;;;;;;;;1.40;99.90;;;;;;5112462;28;20034;-83
2023/12/06 05:09:30;;;;;;;;;;;1.40;99.90;;;;;;5106373;28;19932;-83
2023/12/06 05:11:55;;;;;;;;;;;1.40;99.90;;;;;;5113532;27;19924;-83
2023/12/06 05:14:21;;;;;;;;;;;1.40;99.90;;;;;;5114361;28;19924;-82
2023/12/06 05:16:46;;;;;;;;;;;1.50;99.90;;;;;;5113441;28;19974;-84
2023/12/06 05:19:12;;;;;;;;;;;1.50;99.90;;;;;;5113938;27;20010;-84
2023/12/06 05:21:38;;;;;;;;;;;1.50;99.90;;;;;;5114252;27;19924;-83
2023/12/06 05:24:03;;;;;;;;;;;1.50;99.90;;;;;;5102279;27;19930;-83
2023/12/06 05:26:29;;;;;;;;;;;1.50;99.90;;;;;;5102036;28;20366;-83
2023/12/06 05:28:54;;;;;;;;;;;1.50;99.90;;;;;;5113434;28;19924;-83
2023/12/06 05:31:21;;;;;;;;;;;1.50;99.90;;;;;;5114195;28;19928;-81
2023/12/06 05:33:48;;;;;;;;;;;1.50;99.90;;;;;;5088459;28;19924;-82
2023/12/06 05:36:13;;;;;;;;;;;1.60;99.90;;;;;;5108749;28;19928;-83
2023/12/06 05:38:39;;;;;;;;;;;1.60;99.90;;;;;;5108414;28;19924;-83
2023/12/06 05:41:05;;;;;;;;;;;1.50;99.90;;;;;;5122897;27;19924;-82
2023/12/06 05:43:30;;;;;;;;;;;1.50;99.90;;;;;;5101973;27;20427;-83
2023/12/06 05:45:56;;;;;;;;;;;1.50;99.90;;;;;;5112793;28;19934;-82
2023/12/06 05:48:21;;;;;;;;;;;1.50;99.90;;;;;;5114198;28;19924;-81
2023/12/06 05:50:47;;;;;;;;;;;1.60;99.90;;;;;;5112727;28;19986;-83
2023/12/06 05:53:13;;;;;;;;;;;1.50;99.90;;;;;;5112132;28;20056;-84
2023/12/06 05:55:40;;;;;;;;;;;1.60;99.90;;;;;;5112050;28;20386;-83
2023/12/06 05:58:05;;;;;;;;;;;1.60;99.90;;;;;;5112120;28;19928;-84
2023/12/06 06:00:31;;;;;;;;;;;1.60;99.90;;;;;;5112038;27;20399;-83
2023/12/06 06:02:58;;;;;;;;;;;1.60;99.90;;;;;;5111935;28;19938;-83
2023/12/06 06:05:24;;;;;;;;;;;1.50;99.90;;;;;;5105574;28;19934;-85
2023/12/06 06:07:49;;;;;;;;;;;1.60;99.90;;;;;;5114394;27;19924;-84
2023/12/06 06:10:15;;;;;;;;;;;1.60;99.90;;;;;;5106648;27;19924;-83
2023/12/06 06:12:40;;;;;;;;;;;1.70;99.90;;;;;;5108585;28;20305;-85
2023/12/06 06:15:08;;;;;;;;;;;1.60;99.90;;;;;;5137265;27;19931;-88
2023/12/06 06:17:34;;;;;;;;;;;1.60;99.90;;;;;;5121420;27;19927;-84
2023/12/06 06:19:59;;;;;;;;;;;1.60;99.90;;;;;;5106484;28;19931;-84
2023/12/06 06:22:25;;;;;;;;;;;1.70;99.90;;;;;;5101421;28;19923;-83
2023/12/06 06:24:50;;;;;;;;;;;1.60;99.90;;;;;;5083002;28;19966;-83
2023/12/06 06:27:16;;;;;;;;;;;1.60;99.90;;;;;;5113558;27;19923;-84
2023/12/06 06:29:44;;;;;;;;;;;1.60;99.90;;;;;;5101157;28;19924;-84
2023/12/06 06:32:10;;;;;;;;;;;1.70;99.90;;;;;;5112877;28;19928;-83
2023/12/06 06:34:35;;;;;;;;;;;1.70;99.90;;;;;;5109927;28;20384;-84
2023/12/06 06:37:01;;;;;;;;;;;1.70;99.90;;;;;;5111516;28;19931;-84
2023/12/06 06:39:28;;;;;;;;;;;1.70;99.90;;;;;;5104622;28;19930;-84
2023/12/06 06:41:54;;;;;;;;;;;1.70;99.90;;;;;;5095300;28;19930;-83
2023/12/06 06:44:19;;;;;;;;;;;1.60;99.90;;;;;;5112252;28;19923;-83
2023/12/06 06:46:45;;;;;;;;;;;1.70;99.90;;;;;;5111675;28;19942;-84
2023/12/06 06:49:10;;;;;;;;;;;1.60;99.90;;;;;;5111248;28;19998;-83
2023/12/06 06:51:36;;;;;;;;;;;1.70;99.90;;;;;;5111006;28;19971;-83
2023/12/06 06:54:02;;;;;;;;;;;1.70;99.90;;;;;;5120467;28;19924;-83
2023/12/06 06:56:28;;;;;;;;;;;1.70;99.90;;;;;;5108844;28;19931;-83
2023/12/06 06:58:54;;;;;;;;;;;1.70;99.90;;;;;;5122559;28;19924;-84
2023/12/06 07:01:19;;;;;;;;;;;1.70;99.90;;;;;;5111619;28;19984;-83
2023/12/06 07:03:45;;;;;;;;;;;1.70;99.90;;;;;;5110839;28;19975;-84
2023/12/06 07:06:11;;;;;;;;;;;1.80;99.90;;;;;;5120450;28;19930;-83
2023/12/06 07:08:37;;;;;;;;;;;1.80;99.90;;;;;;5122458;28;19931;-83
2023/12/06 07:11:04;;;;;;;;;;;1.70;99.90;;;;;;5113234;28;20457;-83
2023/12/06 07:13:30;;;;;;;;;;;1.80;99.90;;;;;;5114824;27;19935;-83
2023/12/06 07:15:56;;;;;;;;;;;1.80;99.90;;;;;;5120354;27;19923;-84
2023/12/06 07:18:21;;;;;;;;;;;1.80;99.90;;;;;;5116237;27;19924;-86
2023/12/06 07:20:48;;;;;;;;;;;1.80;99.90;;;;;;5122809;27;20022;-83
2023/12/06 07:23:14;;;;;;;;;;;1.90;99.90;;;;;;5120984;27;19935;-85
2023/12/06 07:25:39;;;;;;;;;;;1.80;99.90;;;;;;5114180;28;19924;-83
2023/12/06 07:28:05;;;;;;;;;;;1.80;99.90;;;;;;5120873;28;19928;-82
2023/12/06 07:30:31;;;;;;;;;;;1.80;99.90;;;;;;5120436;27;20376;-83
2023/12/06 07:32:57;;;;;;;;;;;1.90;99.90;;;;;;5121528;28;19928;-84
2023/12/06 07:35:22;;;;;;;;;;;1.90;99.90;;;;;;5117790;27;19932;-84
2023/12/06 07:37:48;;;;;;;;;;;1.90;99.90;;;;;;5108816;28;19971;-83
2023/12/06 07:40:14;;;;;;;;;;;1.90;99.90;;;;;;5111533;28;19928;-83
2023/12/06 07:42:39;;;;;;;;;;;1.90;99.90;;;;;;5109609;28;19931;-84
2023/12/06 07:45:05;;;;;;;;;;;1.90;99.90;;;;;;5116222;27;19931;-83
2023/12/06 07:47:31;;;;;;;;;;;1.90;99.90;;;;;;5149594;27;20006;-84
2023/12/06 07:49:56;;;;;;;;;;;1.90;99.90;;;;;;5105073;28;19962;-84
2023/12/06 07:52:22;;;;;;;;;;;2.00;99.90;;;;;;5116476;27;20394;-82
2023/12/06 07:54:48;;;;;;;;;;;2.10;99.90;;;;;;5124483;27;19997;-84
2023/12/06 07:57:13;;;;;;;;;;;2.00;99.90;;;;;;5119925;27;19932;-83
2023/12/06 07:59:39;;;;;;;;;;;1.90;99.90;;;;;;5116473;28;19928;-82
2023/12/06 08:02:04;;;;;;;;;;;2.00;99.90;;;;;;5117624;27;19940;-83
2023/12/06 08:04:30;;;;;;;;;;;2.00;99.90;;;;;;5119894;27;19942;-84
2023/12/06 08:06:55;;;;;;;;;;;2.00;99.90;;;;;;5115519;27;20407;-83
2023/12/06 08:09:22;;;;;;;;;;;2.00;99.90;;;;;;5107954;27;19924;-84
2023/12/06 08:11:48;;;;;;;;;;;2.00;99.90;;;;;;5115629;27;19946;-81
2023/12/06 08:14:14;;;;;;;;;;;2.00;99.90;;;;;;5113661;27;19928;-81
2023/12/06 08:16:39;;;;;;;;;;;2.10;99.90;;;;;;5112449;28;19936;-81
2023/12/06 08:19:05;;;;;;;;;;;2.10;99.90;;;;;;5117683;27;19932;-82
2023/12/06 08:21:30;;;;;;;;;;;2.10;99.90;;;;;;5116461;27;19928;-81
2023/12/06 08:23:56;;;;;;;;;;;2.10;99.90;;;;;;5115027;27;20010;-82
2023/12/06 08:26:21;;;;;;;;;;;2.10;99.90;;;;;;5112494;28;19928;-82
2023/12/06 08:28:47;;;;;;;;;;;2.20;99.90;;;;;;5117120;27;20267;-82
2023/12/06 08:31:13;;;;;;;;;;;2.20;99.90;;;;;;5118063;27;19928;-81
2023/12/06 08:33:38;;;;;;;;;;;2.20;99.90;;;;;;5145485;27;19935;-81
2023/12/06 08:36:04;;;;;;;;;;;2.20;99.90;;;;;;5137123;27;19938;-82
2023/12/06 08:38:30;;;;;;;;;;;2.30;99.90;;;;;;5102509;27;19931;-82
2023/12/06 08:40:55;;;;;;;;;;;2.30;99.90;;;;;;5112000;27;19924;-82
2023/12/06 08:43:21;;;;;;;;;;;2.20;99.90;;;;;;5102207;28;20468;-82
2023/12/06 08:45:46;;;;;;;;;;;2.30;99.90;;;;;;5096786;27;19934;-83
2023/12/06 08:48:12;;;;;;;;;;;2.30;99.90;;;;;;5114642;28;19930;-82
2023/12/06 08:50:38;;;;;;;;;;;2.30;99.90;;;;;;5098802;28;19928;-82
2023/12/06 08:53:03;;;;;;;;;;;2.30;99.90;;;;;;5108902;27;20002;-82
2023/12/06 08:55:29;;;;;;;;;;;2.30;99.90;;;;;;5120262;27;19935;-83
2023/12/06 08:57:54;;;;;;;;;;;2.40;99.90;;;;;;5115311;27;19934;-82
2023/12/06 09:00:20;;;;;;;;;;;2.40;99.90;;;;;;5120860;27;19934;-82
2023/12/06 09:02:46;;;;;;;;;;;2.40;99.90;;;;;;5112444;27;19923;-83
2023/12/06 09:05:11;;;;;;;;;;;2.40;99.90;;;;;;5121326;27;19974;-83
2023/12/06 09:07:37;;;;;;;;;;;2.40;99.90;;;;;;5109404;27;20310;-83
2023/12/06 09:10:03;;;;;;;;;;;2.40;99.90;;;;;;5128436;27;19977;-82
2023/12/06 09:12:29;;;;;;;;;;;2.40;99.90;;;;;;5108396;27;19924;-83
2023/12/06 09:14:55;;;;;;;;;;;2.40;99.90;;;;;;5139682;27;20425;-85
2023/12/06 09:17:20;;;;;;;;;;;2.40;99.90;;;;;;5103817;27;20348;-82
2023/12/06 09:19:46;;;;;;;;;;;2.40;99.90;;;;;;5115684;27;19924;-83
2023/12/06 09:22:11;;;;;;;;;;;2.40;99.90;;;;;;5112263;28;20371;-83
2023/12/06 09:24:37;;;;;;;;;;;2.40;99.90;;;;;;5091618;28;19951;-82
2023/12/06 09:27:03;;;;;;;;;;;2.50;99.90;;;;;;5120903;27;20005;-82
2023/12/06 09:29:29;;;;;;;;;;;2.50;99.90;;;;;;5117452;27;20273;-83
2023/12/06 09:31:55;;;;;;;;;;;2.50;99.90;;;;;;5113606;27;19928;-84
2023/12/06 09:34:20;;;;;;;;;;;2.50;99.90;;;;;;5105287;27;20361;-82
2023/12/06 09:36:46;;;;;;;;;;;2.50;99.90;;;;;;5115230;27;19923;-82
2023/12/06 09:39:15;;;;;;;;;;;2.60;99.90;;;;;;5111027;28;19924;-82
2023/12/06 09:41:42;;;;;;;;;;;2.60;99.90;;;;;;5110687;27;19938;-83
2023/12/06 09:44:07;;;;;;;;;;;2.60;99.90;;;;;;5142961;27;19924;-82
2023/12/06 09:46:33;;;;;;;;;;;2.60;99.90;;;;;;5101942;28;20441;-83
2023/12/06 09:48:59;;;;;;;;;;;2.60;99.90;;;;;;5135275;27;19931;-83
2023/12/06 09:51:25;;;;;;;;;;;2.70;99.90;;;;;;5111853;28;19923;-82
2023/12/06 09:53:51;;;;;;;;;;;2.70;99.90;;;;;;5113138;28;20011;-83
2023/12/06 09:56:17;;;;;;;;;;;2.70;99.90;;;;;;5113724;27;19972;-82
2023/12/06 09:58:43;;;;;;;;;;;2.70;99.90;;;;;;5112627;27;19928;-83
2023/12/06 10:01:09;;;;;;;;;;;2.70;99.90;;;;;;5111841;27;19924;-83
2023/12/06 10:03:35;;;;;;;;;;;2.80;99.90;;;;;;5109257;28;19924;-83
2023/12/06 10:06:04;;;;;;;;;;;2.80;99.90;;;;;;5110010;28;19935;-83
2023/12/06 10:08:33;;;;;;;;;;;2.80;99.90;;;;;;5093678;28;19928;-90
2023/12/06 10:11:02;;;;;;;;;;;2.80;99.90;;;;;;5128874;27;19928;-83
2023/12/06 10:13:34;;;;;;;;;;;2.90;99.90;;;;;;5110314;27;19931;-83
2023/12/06 10:16:00;;;;;;;;;;;2.90;99.90;;;;;;5114082;27;19949;-83
2023/12/06 10:18:26;;;;;;;;;;;3.00;99.90;;;;;;5113539;27;19967;-84
2023/12/06 10:20:52;;;;;;;;;;;3.00;99.90;;;;;;5122659;27;20306;-83
2023/12/06 10:23:17;;;;;;;;;;;3.00;99.90;;;;;;5111714;28;19930;-84
2023/12/06 10:25:43;;;;;;;;;;;3.00;99.90;;;;;;5111699;28;20006;-84
2023/12/06 10:28:11;;;;;;;;;;;3.00;99.90;;;;;;5109502;28;19924;-82
2023/12/06 10:30:36;;;;;;;;;;;3.10;99.90;;;;;;5117753;28;19935;-83
2023/12/06 10:33:02;;;;;;;;;;;3.10;99.90;;;;;;5116877;27;19928;-83
2023/12/06 10:35:28;;;;;;;;;;;3.10;99.90;;;;;;5111569;28;19946;-84
2023/12/06 10:37:55;;;;;;;;;;;3.10;99.90;;;;;;5112473;28;19928;-83
2023/12/06 10:40:23;;;;;;;;;;;3.10;99.90;;;;;;5112016;28;19972;-84
2023/12/06 10:42:52;;;;;;;;;;;3.10;99.90;;;;;;5112826;28;19928;-85
2023/12/06 10:45:21;;;;;;;;;;;3.20;99.90;;;;;;5113038;28;19931;-83
2023/12/06 10:47:47;;;;;;;;;;;3.20;99.90;;;;;;5117463;27;19924;-83
2023/12/06 10:50:14;;;;;;;;;;;3.30;99.90;;;;;;5137543;27;20400;-84
2023/12/06 10:52:40;;;;;;;;;;;3.20;99.90;;;;;;5120751;27;19927;-82
2023/12/06 10:55:06;;;;;;;;;;;3.20;99.90;;;;;;5122478;27;19928;-82
2023/12/06 10:57:32;;;;;;;;;;;3.20;99.90;;;;;;5119763;27;19947;-84
2023/12/06 10:59:59;;;;;;;;;;;3.30;99.90;;;;;;5114320;27;19924;-85
2023/12/06 11:02:24;;;;;;;;;;;3.30;99.90;;;;;;5115861;27;19981;-83
2023/12/06 11:04:57;;;;;;;;;;;3.40;99.90;;;;;;5116096;27;19971;-83
2023/12/06 11:07:40;;;;;;;;;;;3.40;99.90;;;;;;5116193;28;19923;-86
2023/12/06 11:10:11;;;;;;;;;;;3.40;99.90;;;;;;5103693;27;20436;-84
2023/12/06 11:13:01;;;;;;;;;;;3.40;99.90;;;;;;5114894;27;19924;-84
2023/12/06 11:15:46;;;;;;;;;;;3.40;99.90;;;;;;5116350;27;20018;-83
2023/12/06 11:18:13;;;;;;;;;;;3.50;99.90;;;;;;5111916;27;20644;-86
2023/12/06 11:20:39;;;;;;;;;;;3.50;99.90;;;;;;5113007;27;20263;-84
2023/12/06 11:23:06;;;;;;;;;;;3.50;99.90;;;;;;5109852;27;19923;-88
2023/12/06 11:25:31;;;;;;;;;;;3.50;99.90;;;;;;5111967;27;20013;-86
2023/12/06 11:27:57;;;;;;;;;;;3.60;99.90;;;;;;5109876;28;19954;-85
2023/12/06 11:30:22;;;;;;;;;;;3.60;99.90;;;;;;5112984;27;19966;-85
2023/12/06 11:32:53;;;;;;;;;;;3.60;99.90;;;;;;5111654;27;20449;-85
2023/12/06 11:35:18;;;;;;;;;;;3.60;99.90;;;;;;5113471;28;19927;-85
2023/12/06 11:37:50;;;;;;;;;;;3.70;99.90;;;;;;5113085;28;20480;-88
2023/12/06 11:40:20;;;;;;;;;;;3.70;99.90;;;;;;5103623;28;19931;-85
2023/12/06 11:42:56;;;;;;;;;;;3.70;99.90;;;;;;5103006;27;19928;-85
2023/12/06 11:45:25;;;;;;;;;;;3.80;99.90;;;;;;5109665;27;19931;-84
2023/12/06 11:47:52;;;;;;;;;;;3.80;99.90;;;;;;5111359;27;20336;-84
2023/12/06 11:50:18;;;;;;;;;;;3.80;99.90;;;;;;5131452;27;20295;-86
2023/12/06 11:53:02;;;;;;;;;;;3.80;99.90;;;;;;5108610;27;19935;-87
2023/12/06 11:55:29;;;;;;;;;;;3.80;99.90;;;;;;5088302;28;20015;-86
2023/12/06 11:58:00;;;;;;;;;;;3.80;99.90;;;;;;5097862;28;20374;-86
2023/12/06 12:00:27;;;;;;;;;;;3.80;99.90;;;;;;5111979;28;19932;-86
2023/12/06 12:02:53;;;;;;;;;;;3.80;99.90;;;;;;5107407;28;20354;-85
2023/12/06 12:05:19;;;;;;;;;;;3.80;99.90;;;;;;5105917;28;20018;-86
2023/12/06 12:07:46;;;;;;;;;;;3.80;99.90;;;;;;5112036;28;19938;-85
2023/12/06 12:10:11;;;;;;;;;;;3.90;99.90;;;;;;5111677;28;20378;-86
2023/12/06 12:12:37;;;;;;;;;;;3.90;99.90;;;;;;5107477;28;19930;-85
2023/12/06 12:15:04;;;;;;;;;;;3.90;99.90;;;;;;5112717;28;19923;-85
2023/12/06 12:17:30;;;;;;;;;;;3.90;99.90;;;;;;5112684;27;20404;-85
2023/12/06 12:19:55;;;;;;;;;;;3.90;99.90;;;;;;5110076;28;19935;-85
2023/12/06 12:22:21;;;;;;;;;;;3.80;99.90;;;;;;5099869;28;19938;-85
2023/12/06 12:24:47;;;;;;;;;;;3.90;99.90;;;;;;5111165;28;19931;-87
2023/12/06 12:27:12;;;;;;;;;;;3.90;99.90;;;;;;5114258;27;19939;-85
2023/12/06 12:29:38;;;;;;;;;;;3.90;99.90;;;;;;5114843;28;19935;-86
2023/12/06 12:32:04;;;;;;;;;;;3.90;99.90;;;;;;5117042;27;20447;-86
2023/12/06 12:34:30;;;;;;;;;;;3.90;99.90;;;;;;5102136;28;19924;-86
2023/12/06 12:36:58;;;;;;;;;;;4.00;99.90;;;;;;5091231;28;19976;-86
2023/12/06 12:39:24;;;;;;;;;;;4.00;99.90;;;;;;5108554;27;20317;-86
2023/12/06 12:41:49;;;;;;;;;;;4.00;99.90;;;;;;5120054;27;19923;-85
2023/12/06 12:44:15;;;;;;;;;;;4.10;99.90;;;;;;5110661;27;20019;-86
2023/12/06 12:46:40;;;;;;;;;;;4.00;99.90;;;;;;5116252;27;19927;-88
2023/12/06 12:49:06;;;;;;;;;;;4.00;99.90;;;;;;5108737;28;20366;-86
2023/12/06 12:51:32;;;;;;;;;;;4.00;99.90;;;;;;5112126;27;19928;-88
2023/12/06 12:53:58;;;;;;;;;;;4.00;99.90;;;;;;5112087;27;20579;-86
2023/12/06 12:56:24;;;;;;;;;;;4.00;99.90;;;;;;5118252;27;19930;-85
2023/12/06 12:58:49;;;;;;;;;;;3.90;99.90;;;;;;5110027;27;19928;-85
2023/12/06 13:01:15;;;;;;;;;;;4.00;99.90;;;;;;5112474;27;19992;-85
2023/12/06 13:03:42;;;;;;;;;;;3.90;99.90;;;;;;5112894;27;20012;-84
2023/12/06 13:06:08;;;;;;;;;;;3.90;99.90;;;;;;5113878;28;20277;-87
2023/12/06 13:08:34;;;;;;;;;;;3.90;99.90;;;;;;5142627;27;19927;-85
2023/12/06 13:11:00;;;;;;;;;;;3.90;99.90;;;;;;5112013;27;19930;-81
2023/12/06 13:13:26;;;;;;;;;;;3.90;99.90;;;;;;5113690;28;19924;-85
2023/12/06 13:15:52;;;;;;;;;;;3.90;99.90;;;;;;5113169;28;20369;-84
2023/12/06 13:18:18;;;;;;;;;;;3.90;99.90;;;;;;5112956;28;20441;-84
2023/12/06 13:20:44;;;;;;;;;;;3.90;99.90;;;;;;5119525;27;20018;-85
2023/12/06 13:23:10;;;;;;;;;;;3.90;99.90;;;;;;5113600;28;19959;-90
2023/12/06 13:25:35;;;;;;;;;;;3.90;99.90;;;;;;5141558;27;19976;-85
2023/12/06 13:28:01;;;;;;;;;;;3.90;99.90;;;;;;5110111;28;19931;-85
2023/12/06 13:30:26;;;;;;;;;;;3.90;99.90;;;;;;5100758;28;19924;-85
2023/12/06 13:32:52;;;;;;;;;;;3.90;99.90;;;;;;5113598;28;19924;-84
2023/12/06 13:35:17;;;;;;;;;;;3.90;99.90;;;;;;5110109;28;19975;-84
2023/12/06 13:37:43;;;;;;;;;;;3.90;99.90;;;;;;5112203;28;19934;-84
2023/12/06 13:40:09;;;;;;;;;;;3.90;99.90;;;;;;5110400;28;19928;-84
2023/12/06 13:42:35;;;;;;;;;;;3.90;99.90;;;;;;5114157;27;20391;-84
2023/12/06 13:45:01;;;;;;;;;;;3.90;99.90;;;;;;5115441;28;19932;-84
2023/12/06 13:47:26;;;;;;;;;;;3.90;99.90;;;;;;5115019;28;20297;-83
2023/12/06 13:49:52;;;;;;;;;;;3.90;99.90;;;;;;5113711;28;19927;-85
2023/12/06 13:52:18;;;;;;;;;;;3.90;99.90;;;;;;5115147;27;19930;-85
2023/12/06 13:54:43;;;;;;;;;;;4.00;99.90;;;;;;5117994;27;20438;-85
2023/12/06 13:57:09;;;;;;;;;;;4.00;99.90;;;;;;5136840;27;19989;-85
2023/12/06 13:59:39;;;;;;;;;;;4.00;99.90;;;;;;5112792;28;20396;-84
2023/12/06 14:02:05;;;;;;;;;;;4.00;99.90;;;;;;5113146;28;20400;-85
2023/12/06 14:04:30;;;;;;;;;;;4.00;99.90;;;;;;5113472;28;19927;-84
2023/12/06 14:06:56;;;;;;;;;;;4.00;99.90;;;;;;5111942;28;19927;-85
2023/12/06 14:09:21;;;;;;;;;;;4.00;99.90;;;;;;5090628;28;19935;-85
2023/12/06 14:11:47;;;;;;;;;;;4.10;99.90;;;;;;5111914;28;19928;-85
2023/12/06 14:14:13;;;;;;;;;;;4.10;99.90;;;;;;5112586;27;19928;-87
2023/12/06 14:16:38;;;;;;;;;;;4.10;99.90;;;;;;5094296;28;19968;-85
2023/12/06 14:19:04;;;;;;;;;;;4.20;99.90;;;;;;5119160;27;19924;-84
2023/12/06 14:21:29;;;;;;;;;;;4.10;99.90;;;;;;5119645;28;19931;-85
2023/12/06 14:23:55;;;;;;;;;;;4.20;99.90;;;;;;5119062;28;20289;-85